sensor_id;sensor_type;location;lat;lon;timestamp;temperature;humidity
1205;DHT22;592;48.764;9.174;2023-07-13T00:01:29;20.20;98.10
1205;DHT22;592;48.764;9.174;2023-07-13T00:03:57;20.10;98.20
1205;DHT22;592;48.764;9.174;2023-07-13T00:06:24;20.10;98.10
1205;DHT22;592;48.764;9.174;2023-07-13T00:08:51;20.10;97.90
1205;DHT22;592;48.764;9.174;2023-07-13T00:11:18;20.00;98.10
1205;DHT22;592;48.764;9.174;2023-07-13T00:13:45;20.00;98.00
1205;DHT22;592;48.764;9.174;2023-07-13T00:16:11;20.00;98.00
1205;DHT22;592;48.764;9.174;2023-07-13T00:18:39;20.00;97.80
1205;DHT22;592;48.764;9.174;2023-07-13T00:21:07;20.30;97.90
1205;DHT22;592;48.764;9.174;2023-07-13T00:23:36;20.00;97.80
1205;DHT22;592;48.764;9.174;2023-07-13T00:26:04;19.90;97.80
1205;DHT22;592;48.764;9.174;2023-07-13T00:28:31;19.90;97.60
1205;DHT22;592;48.764;9.174;2023-07-13T00:30:58;19.80;97.50
1205;DHT22;592;48.764;9.174;2023-07-13T00:33:26;19.80;97.60
1205;DHT22;592;48.764;9.174;2023-07-13T00:35:54;19.90;97.40
1205;DHT22;592;48.764;9.174;2023-07-13T00:38:22;19.80;97.40
1205;DHT22;592;48.764;9.174;2023-07-13T00:40:49;19.80;97.70
1205;DHT22;592;48.764;9.174;2023-07-13T00:43:18;19.80;97.30
1205;DHT22;592;48.764;9.174;2023-07-13T00:46:15;19.80;97.60
1205;DHT22;592;48.764;9.174;2023-07-13T00:48:43;19.70;97.60
1205;DHT22;592;48.764;9.174;2023-07-13T00:51:10;19.80;97.50
1205;DHT22;592;48.764;9.174;2023-07-13T00:53:39;19.80;97.30
1205;DHT22;592;48.764;9.174;2023-07-13T00:56:06;19.80;97.10
1205;DHT22;592;48.764;9.174;2023-07-13T00:58:33;19.80;96.80
1205;DHT22;592;48.764;9.174;2023-07-13T01:01:01;19.70;96.80
1205;DHT22;592;48.764;9.174;2023-07-13T01:03:28;19.60;96.80
1205;DHT22;592;48.764;9.174;2023-07-13T01:05:55;19.70;96.90
1205;DHT22;592;48.764;9.174;2023-07-13T01:08:22;19.70;97.00
1205;DHT22;592;48.764;9.174;2023-07-13T01:10:54;19.60;97.00
1205;DHT22;592;48.764;9.174;2023-07-13T01:13:21;19.60;96.90
1205;DHT22;592;48.764;9.174;2023-07-13T01:15:50;19.60;97.00
1205;DHT22;592;48.764;9.174;2023-07-13T01:18:24;19.60;97.00
1205;DHT22;592;48.764;9.174;2023-07-13T01:20:54;19.60;97.00
1205;DHT22;592;48.764;9.174;2023-07-13T01:23:21;19.90;97.20
1205;DHT22;592;48.764;9.174;2023-07-13T01:25:48;19.60;97.50
1205;DHT22;592;48.764;9.174;2023-07-13T01:28:15;19.50;97.70
1205;DHT22;592;48.764;9.174;2023-07-13T01:30:44;19.60;97.70
1205;DHT22;592;48.764;9.174;2023-07-13T01:33:13;19.40;98.10
1205;DHT22;592;48.764;9.174;2023-07-13T01:35:40;19.40;98.20
1205;DHT22;592;48.764;9.174;2023-07-13T01:38:09;19.20;98.50
1205;DHT22;592;48.764;9.174;2023-07-13T01:40:37;19.30;98.60
1205;DHT22;592;48.764;9.174;2023-07-13T01:43:04;19.20;98.10
1205;DHT22;592;48.764;9.174;2023-07-13T01:45:31;19.20;97.80
1205;DHT22;592;48.764;9.174;2023-07-13T01:47:58;19.20;97.60
1205;DHT22;592;48.764;9.174;2023-07-13T01:50:25;18.90;99.00
1205;DHT22;592;48.764;9.174;2023-07-13T01:52:51;18.80;99.50
1205;DHT22;592;48.764;9.174;2023-07-13T01:55:20;18.80;99.90
1205;DHT22;592;48.764;9.174;2023-07-13T01:57:47;18.70;99.90
1205;DHT22;592;48.764;9.174;2023-07-13T02:00:14;18.70;99.90
1205;DHT22;592;48.764;9.174;2023-07-13T02:02:41;18.60;99.90
1205;DHT22;592;48.764;9.174;2023-07-13T02:05:08;18.80;99.60
1205;DHT22;592;48.764;9.174;2023-07-13T02:07:35;18.80;99.10
1205;DHT22;592;48.764;9.174;2023-07-13T02:10:02;18.80;99.30
1205;DHT22;592;48.764;9.174;2023-07-13T02:12:30;18.80;99.50
1205;DHT22;592;48.764;9.174;2023-07-13T02:14:56;18.70;99.70
1205;DHT22;592;48.764;9.174;2023-07-13T02:17:23;18.50;99.90
1205;DHT22;592;48.764;9.174;2023-07-13T02:19:50;18.30;99.90
1205;DHT22;592;48.764;9.174;2023-07-13T02:22:17;18.20;99.90
1205;DHT22;592;48.764;9.174;2023-07-13T02:24:44;18.30;99.90
1205;DHT22;592;48.764;9.174;2023-07-13T02:27:10;18.10;99.90
1205;DHT22;592;48.764;9.174;2023-07-13T02:29:38;18.30;99.90
1205;DHT22;592;48.764;9.174;2023-07-13T02:32:06;18.30;99.90
1205;DHT22;592;48.764;9.174;2023-07-13T02:34:33;18.30;99.90
1205;DHT22;592;48.764;9.174;2023-07-13T02:37:00;18.20;99.90
1205;DHT22;592;48.764;9.174;2023-07-13T02:39:27;18.40;99.90
1205;DHT22;592;48.764;9.174;2023-07-13T02:41:54;18.40;99.90
1205;DHT22;592;48.764;9.174;2023-07-13T02:44:20;18.30;99.80
1205;DHT22;592;48.764;9.174;2023-07-13T02:46:48;18.40;99.90
1205;DHT22;592;48.764;9.174;2023-07-13T02:49:15;17.90;99.90
1205;DHT22;592;48.764;9.174;2023-07-13T02:51:42;17.90;99.90
1205;DHT22;592;48.764;9.174;2023-07-13T02:54:09;17.70;99.90
1205;DHT22;592;48.764;9.174;2023-07-13T02:56:37;17.50;99.90
1205;DHT22;592;48.764;9.174;2023-07-13T02:59:04;17.30;99.90
1205;DHT22;592;48.764;9.174;2023-07-13T03:01:31;17.20;99.90
1205;DHT22;592;48.764;9.174;2023-07-13T03:04:02;17.10;99.90
1205;DHT22;592;48.764;9.174;2023-07-13T03:06:30;17.20;99.90
1205;DHT22;592;48.764;9.174;2023-07-13T03:08:57;17.10;99.90
1205;DHT22;592;48.764;9.174;2023-07-13T03:11:25;17.20;99.90
1205;DHT22;592;48.764;9.174;2023-07-13T03:13:53;17.30;99.90
1205;DHT22;592;48.764;9.174;2023-07-13T03:16:19;17.40;99.90
1205;DHT22;592;48.764;9.174;2023-07-13T03:18:46;17.40;99.90
1205;DHT22;592;48.764;9.174;2023-07-13T03:21:15;17.20;99.90
1205;DHT22;592;48.764;9.174;2023-07-13T03:23:42;17.10;99.90
1205;DHT22;592;48.764;9.174;2023-07-13T03:26:11;17.10;99.90
1205;DHT22;592;48.764;9.174;2023-07-13T03:28:38;17.10;99.90
1205;DHT22;592;48.764;9.174;2023-07-13T03:31:07;17.10;99.90
1205;DHT22;592;48.764;9.174;2023-07-13T03:33:34;17.20;99.90
1205;DHT22;592;48.764;9.174;2023-07-13T03:36:02;17.40;99.90
1205;DHT22;592;48.764;9.174;2023-07-13T03:38:30;17.40;99.90
1205;DHT22;592;48.764;9.174;2023-07-13T03:40:57;17.50;99.90
1205;DHT22;592;48.764;9.174;2023-07-13T03:43:24;17.60;99.90
1205;DHT22;592;48.764;9.174;2023-07-13T03:45:50;17.70;99.90
1205;DHT22;592;48.764;9.174;2023-07-13T03:48:17;17.50;99.90
1205;DHT22;592;48.764;9.174;2023-07-13T03:50:44;17.70;99.90
1205;DHT22;592;48.764;9.174;2023-07-13T03:53:10;17.80;99.90
1205;DHT22;592;48.764;9.174;2023-07-13T03:55:38;17.70;99.90
1205;DHT22;592;48.764;9.174;2023-07-13T03:58:28;17.80;99.90
1205;DHT22;592;48.764;9.174;2023-07-13T04:00:55;17.90;99.90
1205;DHT22;592;48.764;9.174;2023-07-13T04:03:22;17.90;99.90
1205;DHT22;592;48.764;9.174;2023-07-13T04:05:49;18.10;99.90
1205;DHT22;592;48.764;9.174;2023-07-13T04:08:16;18.00;99.90
1205;DHT22;592;48.764;9.174;2023-07-13T04:10:44;18.10;99.90
1205;DHT22;592;48.764;9.174;2023-07-13T04:13:11;18.00;99.90
1205;DHT22;592;48.764;9.174;2023-07-13T04:15:38;18.10;99.90
1205;DHT22;592;48.764;9.174;2023-07-13T04:18:05;18.00;99.90
1205;DHT22;592;48.764;9.174;2023-07-13T04:20:32;17.90;99.90
1205;DHT22;592;48.764;9.174;2023-07-13T04:22:59;18.00;99.90
1205;DHT22;592;48.764;9.174;2023-07-13T04:25:26;18.00;99.90
1205;DHT22;592;48.764;9.174;2023-07-13T04:27:54;18.00;99.90
1205;DHT22;592;48.764;9.174;2023-07-13T04:30:22;18.10;99.90
1205;DHT22;592;48.764;9.174;2023-07-13T04:32:50;18.10;99.90
1205;DHT22;592;48.764;9.174;2023-07-13T04:35:17;18.20;99.90
1205;DHT22;592;48.764;9.174;2023-07-13T04:37:46;18.00;99.90
1205;DHT22;592;48.764;9.174;2023-07-13T04:40:12;18.10;99.90
1205;DHT22;592;48.764;9.174;2023-07-13T04:42:39;18.10;99.90
1205;DHT22;592;48.764;9.174;2023-07-13T04:45:09;18.20;99.90
1205;DHT22;592;48.764;9.174;2023-07-13T04:47:36;18.20;99.90
1205;DHT22;592;48.764;9.174;2023-07-13T04:50:03;18.20;99.90
1205;DHT22;592;48.764;9.174;2023-07-13T04:52:30;18.10;99.90
1205;DHT22;592;48.764;9.174;2023-07-13T04:54:58;17.90;99.90
1205;DHT22;592;48.764;9.174;2023-07-13T04:57:25;17.80;99.90
1205;DHT22;592;48.764;9.174;2023-07-13T04:59:52;17.70;99.90
1205;DHT22;592;48.764;9.174;2023-07-13T05:02:20;17.70;99.90
1205;DHT22;592;48.764;9.174;2023-07-13T05:04:47;17.80;99.90
1205;DHT22;592;48.764;9.174;2023-07-13T05:07:14;17.70;99.90
1205;DHT22;592;48.764;9.174;2023-07-13T05:09:40;17.90;99.90
1205;DHT22;592;48.764;9.174;2023-07-13T05:12:09;18.00;99.90
1205;DHT22;592;48.764;9.174;2023-07-13T05:14:36;18.20;99.90
1205;DHT22;592;48.764;9.174;2023-07-13T05:17:03;18.20;99.90
1205;DHT22;592;48.764;9.174;2023-07-13T05:19:41;18.30;99.90
1205;DHT22;592;48.764;9.174;2023-07-13T05:22:08;18.40;99.90
1205;DHT22;592;48.764;9.174;2023-07-13T05:24:35;18.40;99.90
1205;DHT22;592;48.764;9.174;2023-07-13T05:27:02;18.40;99.90
1205;DHT22;592;48.764;9.174;2023-07-13T05:29:28;18.60;99.90
1205;DHT22;592;48.764;9.174;2023-07-13T05:31:55;18.80;99.90
1205;DHT22;592;48.764;9.174;2023-07-13T05:34:22;18.70;99.80
1205;DHT22;592;48.764;9.174;2023-07-13T05:36:50;18.80;99.90
1205;DHT22;592;48.764;9.174;2023-07-13T05:39:17;18.80;98.60
1205;DHT22;592;48.764;9.174;2023-07-13T05:41:44;18.90;99.50
1205;DHT22;592;48.764;9.174;2023-07-13T05:44:11;19.00;99.10
1205;DHT22;592;48.764;9.174;2023-07-13T05:46:37;19.10;99.00
1205;DHT22;592;48.764;9.174;2023-07-13T05:49:04;19.10;98.60
1205;DHT22;592;48.764;9.174;2023-07-13T05:51:31;19.20;98.10
1205;DHT22;592;48.764;9.174;2023-07-13T05:53:59;19.10;98.00
1205;DHT22;592;48.764;9.174;2023-07-13T05:56:25;19.20;98.20
1205;DHT22;592;48.764;9.174;2023-07-13T05:58:52;19.20;98.30
1205;DHT22;592;48.764;9.174;2023-07-13T06:01:19;19.20;98.40
1205;DHT22;592;48.764;9.174;2023-07-13T06:03:46;19.10;98.00
1205;DHT22;592;48.764;9.174;2023-07-13T06:06:13;19.10;98.00
1205;DHT22;592;48.764;9.174;2023-07-13T06:08:40;19.10;98.30
1205;DHT22;592;48.764;9.174;2023-07-13T06:11:13;19.30;98.60
1205;DHT22;592;48.764;9.174;2023-07-13T06:13:40;19.60;98.30
1205;DHT22;592;48.764;9.174;2023-07-13T06:16:07;19.80;98.00
1205;DHT22;592;48.764;9.174;2023-07-13T06:18:35;20.10;97.40
1205;DHT22;592;48.764;9.174;2023-07-13T06:21:06;20.10;97.20
1205;DHT22;592;48.764;9.174;2023-07-13T06:23:32;20.10;96.90
1205;DHT22;592;48.764;9.174;2023-07-13T06:25:59;20.40;97.60
1205;DHT22;592;48.764;9.174;2023-07-13T06:28:28;20.40;96.90
1205;DHT22;592;48.764;9.174;2023-07-13T06:30:55;20.10;95.30
1205;DHT22;592;48.764;9.174;2023-07-13T06:33:22;20.30;96.00
1205;DHT22;592;48.764;9.174;2023-07-13T06:35:48;20.30;95.60
1205;DHT22;592;48.764;9.174;2023-07-13T06:38:15;20.40;95.70
1205;DHT22;592;48.764;9.174;2023-07-13T06:40:42;20.50;96.00
1205;DHT22;592;48.764;9.174;2023-07-13T06:43:08;20.80;95.40
1205;DHT22;592;48.764;9.174;2023-07-13T06:45:41;20.80;95.00
1205;DHT22;592;48.764;9.174;2023-07-13T06:48:08;20.80;95.00
1205;DHT22;592;48.764;9.174;2023-07-13T06:50:35;21.00;95.00
1205;DHT22;592;48.764;9.174;2023-07-13T06:53:02;20.90;95.20
1205;DHT22;592;48.764;9.174;2023-07-13T06:55:29;21.10;95.40
1205;DHT22;592;48.764;9.174;2023-07-13T06:57:55;21.40;95.70
1205;DHT22;592;48.764;9.174;2023-07-13T07:00:22;21.60;94.80
1205;DHT22;592;48.764;9.174;2023-07-13T07:02:50;21.60;94.70
1205;DHT22;592;48.764;9.174;2023-07-13T07:05:17;21.70;93.70
1205;DHT22;592;48.764;9.174;2023-07-13T07:07:47;21.90;95.00
1205;DHT22;592;48.764;9.174;2023-07-13T07:10:14;22.10;93.60
1205;DHT22;592;48.764;9.174;2023-07-13T07:12:45;22.00;92.70
1205;DHT22;592;48.764;9.174;2023-07-13T07:15:13;21.90;93.20
1205;DHT22;592;48.764;9.174;2023-07-13T07:17:40;22.00;93.40
1205;DHT22;592;48.764;9.174;2023-07-13T07:20:10;22.00;92.70
1205;DHT22;592;48.764;9.174;2023-07-13T07:22:37;21.90;91.90
1205;DHT22;592;48.764;9.174;2023-07-13T07:25:04;22.00;92.40
1205;DHT22;592;48.764;9.174;2023-07-13T07:27:31;22.00;91.40
1205;DHT22;592;48.764;9.174;2023-07-13T07:29:58;22.10;91.90
1205;DHT22;592;48.764;9.174;2023-07-13T07:32:26;21.90;91.70
1205;DHT22;592;48.764;9.174;2023-07-13T07:34:52;21.70;91.50
1205;DHT22;592;48.764;9.174;2023-07-13T07:37:20;21.90;91.20
1205;DHT22;592;48.764;9.174;2023-07-13T07:39:48;22.00;91.60
1205;DHT22;592;48.764;9.174;2023-07-13T07:42:15;22.20;91.40
1205;DHT22;592;48.764;9.174;2023-07-13T07:44:42;22.00;91.70
1205;DHT22;592;48.764;9.174;2023-07-13T07:47:09;22.20;91.50
1205;DHT22;592;48.764;9.174;2023-07-13T07:49:36;22.30;92.10
1205;DHT22;592;48.764;9.174;2023-07-13T07:52:04;22.50;91.90
1205;DHT22;592;48.764;9.174;2023-07-13T07:54:32;22.00;90.00
1205;DHT22;592;48.764;9.174;2023-07-13T07:56:59;22.00;90.40
1205;DHT22;592;48.764;9.174;2023-07-13T07:59:26;22.10;90.50
1205;DHT22;592;48.764;9.174;2023-07-13T08:01:52;22.00;90.50
1205;DHT22;592;48.764;9.174;2023-07-13T08:04:19;22.40;90.70
1205;DHT22;592;48.764;9.174;2023-07-13T08:06:46;22.10;89.00
1205;DHT22;592;48.764;9.174;2023-07-13T08:09:13;22.20;90.00
1205;DHT22;592;48.764;9.174;2023-07-13T08:11:41;22.60;89.80
1205;DHT22;592;48.764;9.174;2023-07-13T08:14:07;22.60;88.60
1205;DHT22;592;48.764;9.174;2023-07-13T08:16:34;22.60;89.80
1205;DHT22;592;48.764;9.174;2023-07-13T08:19:01;22.70;89.80
1205;DHT22;592;48.764;9.174;2023-07-13T08:21:29;22.70;88.90
1205;DHT22;592;48.764;9.174;2023-07-13T08:23:56;22.80;88.90
1205;DHT22;592;48.764;9.174;2023-07-13T08:26:23;23.00;90.00
1205;DHT22;592;48.764;9.174;2023-07-13T08:28:52;23.10;90.00
1205;DHT22;592;48.764;9.174;2023-07-13T08:31:19;23.20;87.90
1205;DHT22;592;48.764;9.174;2023-07-13T08:33:46;23.10;88.20
1205;DHT22;592;48.764;9.174;2023-07-13T08:36:13;22.90;88.30
1205;DHT22;592;48.764;9.174;2023-07-13T08:38:40;22.70;88.60
1205;DHT22;592;48.764;9.174;2023-07-13T08:41:12;22.80;88.20
1205;DHT22;592;48.764;9.174;2023-07-13T08:43:39;22.70;90.40
1205;DHT22;592;48.764;9.174;2023-07-13T08:46:13;22.60;89.80
1205;DHT22;592;48.764;9.174;2023-07-13T08:48:44;22.90;89.10
1205;DHT22;592;48.764;9.174;2023-07-13T08:51:21;22.70;89.40
1205;DHT22;592;48.764;9.174;2023-07-13T08:53:52;23.10;89.20
1205;DHT22;592;48.764;9.174;2023-07-13T08:56:23;23.20;89.30
1205;DHT22;592;48.764;9.174;2023-07-13T08:58:54;22.70;88.10
1205;DHT22;592;48.764;9.174;2023-07-13T09:01:30;22.90;88.50
1205;DHT22;592;48.764;9.174;2023-07-13T09:04:04;23.40;90.20
1205;DHT22;592;48.764;9.174;2023-07-13T09:06:39;23.30;89.90
1205;DHT22;592;48.764;9.174;2023-07-13T09:09:17;23.40;89.30
1205;DHT22;592;48.764;9.174;2023-07-13T09:11:52;23.60;90.00
1205;DHT22;592;48.764;9.174;2023-07-13T09:14:33;23.40;89.40
1205;DHT22;592;48.764;9.174;2023-07-13T09:17:04;23.40;89.40
1205;DHT22;592;48.764;9.174;2023-07-13T09:19:32;23.20;89.00
1205;DHT22;592;48.764;9.174;2023-07-13T09:22:02;23.30;89.30
1205;DHT22;592;48.764;9.174;2023-07-13T09:24:36;23.50;90.20
1205;DHT22;592;48.764;9.174;2023-07-13T09:27:10;23.60;90.10
1205;DHT22;592;48.764;9.174;2023-07-13T09:29:41;23.90;88.90
1205;DHT22;592;48.764;9.174;2023-07-13T09:32:12;23.90;88.70
1205;DHT22;592;48.764;9.174;2023-07-13T09:34:40;24.00;88.20
1205;DHT22;592;48.764;9.174;2023-07-13T09:37:07;23.80;87.60
1205;DHT22;592;48.764;9.174;2023-07-13T09:39:37;23.60;87.90
1205;DHT22;592;48.764;9.174;2023-07-13T09:42:11;23.60;88.60
1205;DHT22;592;48.764;9.174;2023-07-13T09:44:53;23.60;86.40
1205;DHT22;592;48.764;9.174;2023-07-13T09:47:22;23.10;86.10
1205;DHT22;592;48.764;9.174;2023-07-13T09:49:55;23.00;87.20
1205;DHT22;592;48.764;9.174;2023-07-13T09:52:24;23.30;88.20
1205;DHT22;592;48.764;9.174;2023-07-13T09:54:52;23.70;87.50
1205;DHT22;592;48.764;9.174;2023-07-13T09:57:24;23.90;87.90
1205;DHT22;592;48.764;9.174;2023-07-13T09:59:53;23.80;85.80
1205;DHT22;592;48.764;9.174;2023-07-13T10:02:29;24.00;87.90
1205;DHT22;592;48.764;9.174;2023-07-13T10:04:59;24.10;86.30
1205;DHT22;592;48.764;9.174;2023-07-13T10:07:26;23.70;86.10
1205;DHT22;592;48.764;9.174;2023-07-13T10:09:58;23.80;86.70
1205;DHT22;592;48.764;9.174;2023-07-13T10:12:27;23.90;87.20
1205;DHT22;592;48.764;9.174;2023-07-13T10:14:55;24.00;85.70
1205;DHT22;592;48.764;9.174;2023-07-13T10:17:30;23.90;86.30
1205;DHT22;592;48.764;9.174;2023-07-13T10:19:59;24.00;84.40
1205;DHT22;592;48.764;9.174;2023-07-13T10:22:36;23.80;84.90
1205;DHT22;592;48.764;9.174;2023-07-13T10:25:13;24.00;85.10
1205;DHT22;592;48.764;9.174;2023-07-13T10:27:43;24.10;86.20
1205;DHT22;592;48.764;9.174;2023-07-13T10:30:14;24.30;85.30
1205;DHT22;592;48.764;9.174;2023-07-13T10:32:43;24.40;87.40
1205;DHT22;592;48.764;9.174;2023-07-13T10:35:12;24.50;83.50
1205;DHT22;592;48.764;9.174;2023-07-13T10:37:45;24.70;84.90
1205;DHT22;592;48.764;9.174;2023-07-13T10:40:16;24.90;85.30
1205;DHT22;592;48.764;9.174;2023-07-13T10:42:45;25.00;84.10
1205;DHT22;592;48.764;9.174;2023-07-13T10:45:15;25.00;84.70
1205;DHT22;592;48.764;9.174;2023-07-13T10:47:45;24.90;83.00
1205;DHT22;592;48.764;9.174;2023-07-13T10:50:17;24.90;83.70
1205;DHT22;592;48.764;9.174;2023-07-13T10:52:47;25.00;83.50
1205;DHT22;592;48.764;9.174;2023-07-13T10:55:36;25.10;83.50
1205;DHT22;592;48.764;9.174;2023-07-13T10:58:12;25.20;85.00
1205;DHT22;592;48.764;9.174;2023-07-13T11:00:48;24.80;82.30
1205;DHT22;592;48.764;9.174;2023-07-13T11:03:20;25.00;85.10
1205;DHT22;592;48.764;9.174;2023-07-13T11:05:49;25.20;83.50
1205;DHT22;592;48.764;9.174;2023-07-13T11:08:20;25.00;82.20
1205;DHT22;592;48.764;9.174;2023-07-13T11:10:58;24.80;83.80
1205;DHT22;592;48.764;9.174;2023-07-13T11:16:39;24.90;83.40
1205;DHT22;592;48.764;9.174;2023-07-13T11:22:23;24.60;84.60
1205;DHT22;592;48.764;9.174;2023-07-13T11:24:59;24.60;83.10
1205;DHT22;592;48.764;9.174;2023-07-13T11:27:35;24.50;83.50
1205;DHT22;592;48.764;9.174;2023-07-13T11:32:51;24.00;84.30
1205;DHT22;592;48.764;9.174;2023-07-13T11:35:23;24.00;84.90
1205;DHT22;592;48.764;9.174;2023-07-13T11:37:52;23.90;85.00
1205;DHT22;592;48.764;9.174;2023-07-13T11:40:22;24.40;84.00
1205;DHT22;592;48.764;9.174;2023-07-13T11:42:52;24.60;85.30
1205;DHT22;592;48.764;9.174;2023-07-13T11:45:20;24.80;85.30
1205;DHT22;592;48.764;9.174;2023-07-13T11:47:48;25.30;84.30
1205;DHT22;592;48.764;9.174;2023-07-13T11:50:22;25.10;84.60
1205;DHT22;592;48.764;9.174;2023-07-13T11:52:51;25.10;84.80
1205;DHT22;592;48.764;9.174;2023-07-13T11:55:21;24.90;83.00
1205;DHT22;592;48.764;9.174;2023-07-13T11:57:51;25.00;83.30
1205;DHT22;592;48.764;9.174;2023-07-13T12:00:22;25.10;82.80
1205;DHT22;592;48.764;9.174;2023-07-13T12:02:51;25.20;84.10
1205;DHT22;592;48.764;9.174;2023-07-13T12:05:20;25.20;83.70
1205;DHT22;592;48.764;9.174;2023-07-13T12:07:48;25.40;83.00
1205;DHT22;592;48.764;9.174;2023-07-13T12:10:20;25.50;83.40
1205;DHT22;592;48.764;9.174;2023-07-13T12:12:50;25.40;81.80
1205;DHT22;592;48.764;9.174;2023-07-13T12:15:18;25.40;83.70
1205;DHT22;592;48.764;9.174;2023-07-13T12:17:46;25.40;81.80
1205;DHT22;592;48.764;9.174;2023-07-13T12:20:23;25.40;82.80
1205;DHT22;592;48.764;9.174;2023-07-13T12:22:51;25.90;82.20
1205;DHT22;592;48.764;9.174;2023-07-13T12:25:19;25.90;81.60
1205;DHT22;592;48.764;9.174;2023-07-13T12:27:49;25.90;82.10
1205;DHT22;592;48.764;9.174;2023-07-13T12:30:28;26.00;80.90
1205;DHT22;592;48.764;9.174;2023-07-13T12:32:57;25.50;78.50
1205;DHT22;592;48.764;9.174;2023-07-13T12:35:28;25.30;79.00
1205;DHT22;592;48.764;9.174;2023-07-13T12:37:57;25.00;79.00
1205;DHT22;592;48.764;9.174;2023-07-13T12:40:28;25.30;79.80
1205;DHT22;592;48.764;9.174;2023-07-13T12:42:58;25.00;80.20
1205;DHT22;592;48.764;9.174;2023-07-13T12:45:27;25.10;82.10
1205;DHT22;592;48.764;9.174;2023-07-13T12:47:55;25.10;80.80
1205;DHT22;592;48.764;9.174;2023-07-13T12:50:33;25.40;79.90
1205;DHT22;592;48.764;9.174;2023-07-13T12:53:03;25.50;79.90
1205;DHT22;592;48.764;9.174;2023-07-13T12:55:41;25.80;79.80
1205;DHT22;592;48.764;9.174;2023-07-13T12:58:16;25.60;78.80
1205;DHT22;592;48.764;9.174;2023-07-13T13:00:48;25.60;78.30
1205;DHT22;592;48.764;9.174;2023-07-13T13:03:24;25.50;79.50
1205;DHT22;592;48.764;9.174;2023-07-13T13:06:01;25.90;82.00
1205;DHT22;592;48.764;9.174;2023-07-13T13:08:30;25.80;78.80
1205;DHT22;592;48.764;9.174;2023-07-13T13:10:57;25.80;79.10
1205;DHT22;592;48.764;9.174;2023-07-13T13:13:24;25.70;79.00
1205;DHT22;592;48.764;9.174;2023-07-13T13:15:51;25.70;77.50
1205;DHT22;592;48.764;9.174;2023-07-13T13:18:18;26.00;80.90
1205;DHT22;592;48.764;9.174;2023-07-13T13:20:46;26.30;77.70
1205;DHT22;592;48.764;9.174;2023-07-13T13:23:16;26.40;77.70
1205;DHT22;592;48.764;9.174;2023-07-13T13:25:44;26.60;77.50
1205;DHT22;592;48.764;9.174;2023-07-13T13:28:16;26.70;77.00
1205;DHT22;592;48.764;9.174;2023-07-13T13:30:43;26.80;76.70
1205;DHT22;592;48.764;9.174;2023-07-13T13:33:14;26.90;75.80
1205;DHT22;592;48.764;9.174;2023-07-13T13:35:42;26.70;75.60
1205;DHT22;592;48.764;9.174;2023-07-13T13:38:11;26.80;77.00
1205;DHT22;592;48.764;9.174;2023-07-13T13:40:41;27.00;76.20
1205;DHT22;592;48.764;9.174;2023-07-13T13:43:14;27.10;76.90
1205;DHT22;592;48.764;9.174;2023-07-13T13:45:42;27.40;76.70
1205;DHT22;592;48.764;9.174;2023-07-13T13:48:15;27.30;74.10
1205;DHT22;592;48.764;9.174;2023-07-13T13:50:42;27.20;76.80
1205;DHT22;592;48.764;9.174;2023-07-13T13:53:10;26.60;74.80
1205;DHT22;592;48.764;9.174;2023-07-13T13:55:38;26.60;74.20
1205;DHT22;592;48.764;9.174;2023-07-13T13:58:08;26.80;74.70
1205;DHT22;592;48.764;9.174;2023-07-13T14:00:36;26.50;73.70
1205;DHT22;592;48.764;9.174;2023-07-13T14:03:05;26.50;74.60
1205;DHT22;592;48.764;9.174;2023-07-13T14:05:32;26.50;74.50
1205;DHT22;592;48.764;9.174;2023-07-13T14:07:59;26.80;75.00
1205;DHT22;592;48.764;9.174;2023-07-13T14:10:26;27.00;75.00
1205;DHT22;592;48.764;9.174;2023-07-13T14:12:55;27.30;74.30
1205;DHT22;592;48.764;9.174;2023-07-13T14:15:26;27.40;75.30
1205;DHT22;592;48.764;9.174;2023-07-13T14:17:53;27.10;75.00
1205;DHT22;592;48.764;9.174;2023-07-13T14:20:22;27.10;73.70
1205;DHT22;592;48.764;9.174;2023-07-13T14:22:49;27.20;74.00
1205;DHT22;592;48.764;9.174;2023-07-13T14:25:17;27.40;75.80
1205;DHT22;592;48.764;9.174;2023-07-13T14:27:48;26.90;74.50
1205;DHT22;592;48.764;9.174;2023-07-13T14:30:18;27.40;77.00
1205;DHT22;592;48.764;9.174;2023-07-13T14:32:46;28.30;75.90
1205;DHT22;592;48.764;9.174;2023-07-13T14:35:15;28.20;72.70
1205;DHT22;592;48.764;9.174;2023-07-13T14:37:44;28.00;71.00
1205;DHT22;592;48.764;9.174;2023-07-13T14:40:13;27.50;73.30
1205;DHT22;592;48.764;9.174;2023-07-13T14:42:40;27.80;73.10
1205;DHT22;592;48.764;9.174;2023-07-13T14:45:14;28.00;72.90
1205;DHT22;592;48.764;9.174;2023-07-13T14:47:41;28.90;73.10
1205;DHT22;592;48.764;9.174;2023-07-13T14:50:14;29.00;73.10
1205;DHT22;592;48.764;9.174;2023-07-13T14:52:42;29.30;70.70
1205;DHT22;592;48.764;9.174;2023-07-13T14:55:11;29.60;71.30
1205;DHT22;592;48.764;9.174;2023-07-13T14:57:38;30.30;71.20
1205;DHT22;592;48.764;9.174;2023-07-13T15:00:13;30.80;68.40
1205;DHT22;592;48.764;9.174;2023-07-13T15:02:41;30.70;70.40
1205;DHT22;592;48.764;9.174;2023-07-13T15:05:15;30.80;67.50
1205;DHT22;592;48.764;9.174;2023-07-13T15:07:42;30.70;69.10
1205;DHT22;592;48.764;9.174;2023-07-13T15:10:14;29.90;68.40
1205;DHT22;592;48.764;9.174;2023-07-13T15:12:41;30.10;69.30
1205;DHT22;592;48.764;9.174;2023-07-13T15:15:08;30.30;68.00
1205;DHT22;592;48.764;9.174;2023-07-13T15:17:37;29.90;68.50
1205;DHT22;592;48.764;9.174;2023-07-13T15:20:12;29.20;69.60
1205;DHT22;592;48.764;9.174;2023-07-13T15:22:44;28.80;71.50
1205;DHT22;592;48.764;9.174;2023-07-13T15:25:16;28.30;72.00
1205;DHT22;592;48.764;9.174;2023-07-13T15:27:43;27.70;73.50
1205;DHT22;592;48.764;9.174;2023-07-13T15:30:11;27.90;73.00
1205;DHT22;592;48.764;9.174;2023-07-13T15:32:38;27.70;72.10
1205;DHT22;592;48.764;9.174;2023-07-13T15:35:13;27.30;73.30
1205;DHT22;592;48.764;9.174;2023-07-13T15:37:40;26.50;74.60
1205;DHT22;592;48.764;9.174;2023-07-13T15:40:11;25.70;75.70
1205;DHT22;592;48.764;9.174;2023-07-13T15:42:39;26.00;74.70
1205;DHT22;592;48.764;9.174;2023-07-13T15:45:15;26.30;74.90
1205;DHT22;592;48.764;9.174;2023-07-13T15:47:43;25.70;75.60
1205;DHT22;592;48.764;9.174;2023-07-13T15:50:13;26.20;75.50
1205;DHT22;592;48.764;9.174;2023-07-13T15:52:41;26.10;74.30
1205;DHT22;592;48.764;9.174;2023-07-13T15:55:11;26.20;76.10
1205;DHT22;592;48.764;9.174;2023-07-13T15:57:39;26.00;75.10
1205;DHT22;592;48.764;9.174;2023-07-13T16:00:16;26.10;80.60
1205;DHT22;592;48.764;9.174;2023-07-13T16:02:45;26.10;75.90
1205;DHT22;592;48.764;9.174;2023-07-13T16:05:12;26.10;73.60
1205;DHT22;592;48.764;9.174;2023-07-13T16:07:40;26.10;75.60
1205;DHT22;592;48.764;9.174;2023-07-13T16:10:09;26.00;75.20
1205;DHT22;592;48.764;9.174;2023-07-13T16:12:39;25.90;74.10
1205;DHT22;592;48.764;9.174;2023-07-13T16:15:13;25.80;75.20
1205;DHT22;592;48.764;9.174;2023-07-13T16:17:41;25.70;75.10
1205;DHT22;592;48.764;9.174;2023-07-13T16:20:09;25.50;75.20
1205;DHT22;592;48.764;9.174;2023-07-13T16:22:37;25.40;75.60
1205;DHT22;592;48.764;9.174;2023-07-13T16:25:16;25.20;75.40
1205;DHT22;592;48.764;9.174;2023-07-13T16:27:44;25.20;76.20
1205;DHT22;592;48.764;9.174;2023-07-13T16:30:16;25.30;76.70
1205;DHT22;592;48.764;9.174;2023-07-13T16:32:44;25.00;75.40
1205;DHT22;592;48.764;9.174;2023-07-13T16:35:11;24.80;76.60
1205;DHT22;592;48.764;9.174;2023-07-13T16:37:38;25.00;77.50